createdAt,value
2018-06-29T00:01:43.687Z,98136.00
2018-06-29T00:05:45.834Z,98133.00
2018-06-29T00:09:47.967Z,98139.00
2018-06-29T00:13:50.284Z,98152.00
2018-06-29T00:17:52.447Z,98147.00
2018-06-29T00:21:55.271Z,98142.00
2018-06-29T00:25:57.415Z,98144.00
2018-06-29T00:29:59.595Z,98137.00
2018-06-29T00:34:01.875Z,98135.00
2018-06-29T00:38:04.143Z,98140.00
2018-06-29T00:42:06.635Z,98132.00
2018-06-29T00:46:08.760Z,98137.00
2018-06-29T00:50:11.102Z,98139.00
2018-06-29T00:54:13.360Z,98140.00
2018-06-29T00:58:15.505Z,98140.00
2018-06-29T01:02:17.661Z,98134.00
2018-06-29T01:06:19.855Z,98136.00
2018-06-29T01:10:22.034Z,98143.00
2018-06-29T01:14:24.421Z,98142.00
2018-06-29T01:18:27.388Z,98147.00
2018-06-29T01:22:29.530Z,98134.00
2018-06-29T01:26:31.831Z,98148.00
2018-06-29T01:30:33.970Z,98151.00
2018-06-29T01:34:36.129Z,98143.00
2018-06-29T01:38:38.284Z,98147.00
2018-06-29T01:42:40.447Z,98144.00
2018-06-29T01:46:43.068Z,98143.00
2018-06-29T01:50:45.223Z,98139.00
2018-06-29T01:54:47.376Z,98136.00
2018-06-29T01:58:49.546Z,98133.00
2018-06-29T02:02:51.733Z,98144.00
2018-06-29T02:06:53.891Z,98154.00
2018-06-29T02:10:56.023Z,98148.00
2018-06-29T02:14:58.164Z,98139.00
2018-06-29T02:19:01.467Z,98132.00
2018-06-29T02:23:03.860Z,98133.00
2018-06-29T02:27:06.223Z,98127.00
2018-06-29T02:31:08.376Z,98117.00
2018-06-29T02:35:11.808Z,98111.00
2018-06-29T02:39:14.000Z,98107.00
2018-06-29T02:43:16.159Z,98106.00
2018-06-29T02:47:18.300Z,98113.00
2018-06-29T02:51:20.459Z,98095.00
2018-06-29T02:55:23.609Z,98104.00
2018-06-29T02:59:25.790Z,98107.00
2018-06-29T03:03:27.946Z,98091.00
2018-06-29T03:07:30.071Z,98106.00
2018-06-29T03:11:32.216Z,98111.00
2018-06-29T03:15:34.366Z,98100.00
2018-06-29T03:19:36.511Z,98110.00
2018-06-29T03:23:38.638Z,98102.00
2018-06-29T03:27:40.806Z,98106.00
2018-06-29T03:31:42.966Z,98099.00
2018-06-29T03:35:45.164Z,98110.00
2018-06-29T03:39:48.964Z,98115.00
2018-06-29T03:43:51.131Z,98052.00
2018-06-29T03:47:53.864Z,98101.00
2018-06-29T03:51:55.999Z,98104.00
2018-06-29T03:55:58.344Z,98097.00
2018-06-29T04:00:00.669Z,98088.00
2018-06-29T04:04:02.790Z,98091.00
2018-06-29T04:08:04.965Z,98095.00
2018-06-29T04:12:07.177Z,98091.00
2018-06-29T04:16:09.386Z,98099.00
2018-06-29T04:20:12.353Z,98101.00
2018-06-29T04:24:14.555Z,98102.00
2018-06-29T04:28:17.214Z,98102.00
2018-06-29T04:32:19.363Z,98101.00
2018-06-29T04:36:21.659Z,98098.00
2018-06-29T04:40:23.853Z,98099.00
2018-06-29T04:44:25.966Z,98105.00
2018-06-29T04:48:28.109Z,98109.00
2018-06-29T04:52:30.251Z,98114.00
2018-06-29T04:56:32.875Z,98110.00
2018-06-29T05:00:35.103Z,98110.00
2018-06-29T05:04:37.239Z,98107.00
2018-06-29T05:08:39.978Z,98107.00
2018-06-29T05:12:42.117Z,98101.00
2018-06-29T05:16:44.268Z,98106.00
2018-06-29T05:20:46.480Z,98109.00
2018-06-29T05:24:48.636Z,98108.00
2018-06-29T05:28:50.763Z,98034.00
2018-06-29T05:32:52.880Z,98100.00
2018-06-29T05:36:55.008Z,98102.00
2018-06-29T05:40:57.174Z,98103.00
2018-06-29T05:44:59.334Z,98101.00
2018-06-29T05:49:02.093Z,98114.00
2018-06-29T05:53:04.272Z,98109.00
2018-06-29T05:57:06.352Z,98102.00
2018-06-29T06:01:10.776Z,98107.00
2018-06-29T06:05:12.919Z,98104.00
2018-06-29T06:09:15.097Z,98104.00
2018-06-29T06:13:17.253Z,98099.00
2018-06-29T06:17:19.356Z,98104.00
2018-06-29T06:21:21.642Z,98111.00
2018-06-29T06:25:23.787Z,98106.00
2018-06-29T06:29:25.965Z,98108.00
2018-06-29T06:33:28.095Z,98107.00
2018-06-29T06:37:30.255Z,98096.00
2018-06-29T06:41:32.451Z,98100.00
2018-06-29T06:45:34.599Z,98095.00
2018-06-29T06:49:36.711Z,98104.00
2018-06-29T06:53:39.014Z,98115.00
2018-06-29T06:57:41.179Z,98100.00
2018-06-29T07:01:43.339Z,98105.00
2018-06-29T07:05:45.491Z,98093.00
2018-06-29T07:09:47.706Z,98101.00
2018-06-29T07:13:49.894Z,98102.00
2018-06-29T07:17:52.225Z,98096.00
2018-06-29T07:21:54.375Z,98091.00
2018-06-29T07:25:56.533Z,98085.00
2018-06-29T07:29:59.795Z,98081.00
2018-06-29T07:34:02.113Z,98094.00
2018-06-29T07:38:04.452Z,98108.00
2018-06-29T07:42:06.651Z,98101.00
2018-06-29T07:46:09.574Z,98103.00
2018-06-29T07:50:12.002Z,98100.00
2018-06-29T07:54:14.216Z,98090.00
2018-06-29T07:58:16.520Z,98109.00
2018-06-29T08:02:18.616Z,98117.00
2018-06-29T08:06:20.844Z,98105.00
2018-06-29T08:10:23.019Z,98112.00
2018-06-29T08:14:25.302Z,98100.00
2018-06-29T08:18:27.464Z,98104.00
2018-06-29T08:22:29.652Z,98101.00
2018-06-29T08:26:31.920Z,98086.00
2018-06-29T08:30:34.193Z,98094.00
2018-06-29T08:34:36.359Z,98106.00
2018-06-29T08:38:38.634Z,98094.00
2018-06-29T08:42:40.803Z,98081.00
2018-06-29T08:46:42.989Z,98099.00
2018-06-29T08:50:45.108Z,98121.00
2018-06-29T08:54:47.312Z,98090.00
2018-06-29T08:58:49.513Z,98089.00
2018-06-29T09:02:51.684Z,98075.00
2018-06-29T09:06:53.881Z,98080.00
2018-06-29T09:10:56.146Z,98079.00
2018-06-29T09:14:58.368Z,98086.00
2018-06-29T09:19:00.627Z,98083.00
2018-06-29T09:23:02.750Z,98074.00
2018-06-29T09:27:05.001Z,98072.00
2018-06-29T09:31:07.204Z,98073.00
2018-06-29T09:35:10.658Z,98048.00
2018-06-29T09:39:13.427Z,98056.00
2018-06-29T09:43:15.787Z,98056.00
2018-06-29T09:47:18.184Z,98047.00
2018-06-29T09:51:20.509Z,98047.00
2018-06-29T09:55:22.666Z,98051.00
2018-06-29T09:59:24.828Z,98048.00
2018-06-29T10:03:27.172Z,98051.00
2018-06-29T10:07:29.337Z,98041.00
2018-06-29T10:11:32.048Z,98038.00
2018-06-29T10:15:34.254Z,98045.00
2018-06-29T10:19:36.465Z,98038.00
2018-06-29T10:23:38.639Z,98030.00
2018-06-29T10:27:40.852Z,98024.00
2018-06-29T10:31:43.032Z,98033.00
2018-06-29T10:35:45.207Z,98017.00
2018-06-29T10:39:47.364Z,98024.00
2018-06-29T10:43:49.585Z,98024.00
2018-06-29T10:47:51.834Z,98029.00
2018-06-29T10:51:53.976Z,98029.00
2018-06-29T10:55:56.147Z,98024.00
2018-06-29T10:59:58.350Z,98022.00
2018-06-29T11:04:00.526Z,98016.00
2018-06-29T11:08:02.822Z,98029.00
2018-06-29T11:12:05.007Z,98023.00
2018-06-29T11:16:07.249Z,98011.00
2018-06-29T11:20:09.403Z,97996.00
2018-06-29T11:24:11.604Z,98004.00
2018-06-29T11:28:14.154Z,98002.00
2018-06-29T11:32:16.408Z,97999.00
2018-06-29T11:36:18.827Z,98006.00
2018-06-29T11:40:21.032Z,97996.00
2018-06-29T11:44:23.202Z,98007.00
2018-06-29T11:48:25.382Z,97994.00
2018-06-29T11:52:27.700Z,97974.00
2018-06-29T11:56:30.078Z,97979.00
2018-06-29T12:00:32.338Z,97974.00
2018-06-29T12:04:34.467Z,97974.00
2018-06-29T12:08:36.697Z,97975.00
2018-06-29T12:12:38.863Z,97967.00
2018-06-29T12:16:41.092Z,97974.00
2018-06-29T12:20:43.731Z,97968.00
2018-06-29T12:24:46.556Z,97976.00
2018-06-29T12:28:48.730Z,97972.00
2018-06-29T12:32:50.911Z,97969.00
2018-06-29T12:36:53.132Z,97966.00
2018-06-29T12:40:55.355Z,97962.00
2018-06-29T12:44:58.575Z,97966.00
2018-06-29T12:49:01.001Z,97959.00
2018-06-29T12:53:03.171Z,97949.00
2018-06-29T12:57:05.572Z,97956.00
2018-06-29T13:01:07.777Z,97941.00
2018-06-29T13:05:10.011Z,97945.00
2018-06-29T13:09:12.199Z,97942.00
2018-06-29T13:13:14.404Z,97951.00
2018-06-29T13:17:16.668Z,97939.00
2018-06-29T13:21:18.893Z,97919.00
2018-06-29T13:25:21.748Z,97919.00
2018-06-29T13:29:24.420Z,97929.00
2018-06-29T13:33:26.580Z,97921.00
2018-06-29T13:37:28.789Z,97916.00
2018-06-29T13:41:31.213Z,97904.00
2018-06-29T13:45:34.945Z,97909.00
2018-06-29T13:49:37.636Z,97903.00
2018-06-29T13:53:39.908Z,97905.00
2018-06-29T13:57:42.164Z,97893.00
2018-06-29T14:01:44.396Z,97904.00
2018-06-29T14:05:46.578Z,97890.00
2018-06-29T14:09:48.802Z,97898.00
2018-06-29T14:13:51.031Z,97891.00
2018-06-29T14:17:53.236Z,97893.00
2018-06-29T14:21:55.333Z,97880.00
2018-06-29T14:25:58.441Z,97878.00
2018-06-29T14:30:00.632Z,97878.00
2018-06-29T14:34:02.827Z,97877.00
2018-06-29T14:38:05.044Z,97876.00
2018-06-29T14:42:08.128Z,97868.00
2018-06-29T14:46:10.315Z,97861.00
2018-06-29T14:50:12.466Z,97862.00
2018-06-29T14:54:15.112Z,97855.00
2018-06-29T14:58:17.326Z,97852.00
2018-06-29T15:02:19.636Z,97843.00
2018-06-29T15:06:21.922Z,97844.00
2018-06-29T15:10:24.110Z,97834.00
2018-06-29T15:14:26.843Z,97831.00
2018-06-29T15:18:29.019Z,97836.00
2018-06-29T15:22:31.250Z,97828.00
2018-06-29T15:26:33.408Z,97826.00
2018-06-29T15:30:35.661Z,97827.00
2018-06-29T15:34:37.953Z,97827.00
2018-06-29T15:38:40.125Z,97823.00
2018-06-29T15:42:42.294Z,97809.00
2018-06-29T15:46:44.461Z,97822.00
2018-06-29T15:50:47.256Z,97799.00
2018-06-29T15:54:49.408Z,97810.00
2018-06-29T15:58:52.123Z,97814.00
2018-06-29T16:02:54.783Z,97810.00
2018-06-29T16:06:57.153Z,97817.00
2018-06-29T16:10:59.327Z,97815.00
2018-06-29T16:15:02.149Z,97801.00
2018-06-29T16:19:04.343Z,97813.00
2018-06-29T16:23:06.488Z,97814.00
2018-06-29T16:27:08.627Z,97808.00
2018-06-29T16:31:10.825Z,97803.00
2018-06-29T16:35:13.175Z,97787.00
2018-06-29T16:39:15.460Z,97795.00
2018-06-29T16:43:17.725Z,97795.00
2018-06-29T16:47:19.998Z,97800.00
2018-06-29T16:51:22.169Z,97798.00
2018-06-29T16:55:24.324Z,97798.00
2018-06-29T16:59:26.477Z,97792.00
2018-06-29T17:03:28.683Z,97789.00
2018-06-29T17:07:30.868Z,97798.00
2018-06-29T17:11:33.039Z,97791.00
2018-06-29T17:15:35.208Z,97785.00
2018-06-29T17:19:37.399Z,97790.00
2018-06-29T17:23:40.246Z,97794.00
2018-06-29T17:27:42.427Z,97791.00
2018-06-29T17:31:44.592Z,97792.00
2018-06-29T17:35:46.736Z,97792.00
2018-06-29T17:39:48.911Z,97795.00
2018-06-29T17:43:51.075Z,97790.00
2018-06-29T17:47:53.294Z,97790.00
2018-06-29T17:51:55.566Z,97786.00
2018-06-29T17:55:57.895Z,97791.00
2018-06-29T18:00:00.115Z,97781.00
2018-06-29T18:04:02.933Z,97786.00
2018-06-29T18:08:05.927Z,97780.00
2018-06-29T18:12:08.148Z,97780.00
2018-06-29T18:16:10.387Z,97781.00
2018-06-29T18:20:12.841Z,97774.00
2018-06-29T18:24:15.002Z,97773.00
2018-06-29T18:28:17.614Z,97776.00
2018-06-29T18:32:20.195Z,97772.00
2018-06-29T18:36:22.379Z,97768.00
2018-06-29T18:40:24.543Z,97772.00
2018-06-29T18:44:26.868Z,97768.00
2018-06-29T18:48:29.359Z,97779.00
2018-06-29T18:52:31.740Z,97781.00
2018-06-29T18:56:33.935Z,97778.00
2018-06-29T19:00:36.144Z,97790.00
2018-06-29T19:04:38.361Z,97784.00
2018-06-29T19:08:40.512Z,97802.00
2018-06-29T19:12:42.696Z,97800.00
2018-06-29T19:16:44.913Z,97788.00
2018-06-29T19:20:47.083Z,97805.00
2018-06-29T19:24:49.360Z,97798.00
2018-06-29T19:28:51.552Z,97803.00
2018-06-29T19:32:53.724Z,97804.00
2018-06-29T19:36:55.921Z,97805.00
2018-06-29T19:40:58.088Z,97807.00
2018-06-29T19:45:00.920Z,97819.00
2018-06-29T19:49:03.124Z,97822.00
2018-06-29T19:53:05.875Z,97819.00
2018-06-29T19:57:08.014Z,97819.00
2018-06-29T20:01:10.309Z,97823.00
2018-06-29T20:05:13.343Z,97827.00
2018-06-29T20:09:15.594Z,97824.00
2018-06-29T20:13:17.792Z,97828.00
2018-06-29T20:17:20.020Z,97835.00
2018-06-29T20:21:22.204Z,97834.00
2018-06-29T20:25:25.384Z,97838.00
2018-06-29T20:29:27.594Z,97845.00
2018-06-29T20:33:29.764Z,97847.00
2018-06-29T20:37:31.919Z,97854.00
2018-06-29T20:41:34.456Z,97855.00
2018-06-29T20:45:36.660Z,97859.00
2018-06-29T20:49:38.862Z,97855.00
2018-06-29T20:53:41.038Z,97859.00
2018-06-29T20:57:43.201Z,97856.00
2018-06-29T21:01:45.396Z,97855.00
2018-06-29T21:05:47.552Z,97858.00
2018-06-29T21:09:51.810Z,97861.00
2018-06-29T21:13:54.119Z,97864.00
2018-06-29T21:17:56.420Z,97861.00
2018-06-29T21:21:58.523Z,97863.00
2018-06-29T21:26:00.663Z,97859.00
2018-06-29T21:30:02.920Z,97866.00
2018-06-29T21:34:05.088Z,97867.00
2018-06-29T21:38:07.831Z,97867.00
2018-06-29T21:42:09.969Z,97871.00
2018-06-29T21:46:12.102Z,97854.00
2018-06-29T21:50:14.300Z,97857.00
2018-06-29T21:54:16.502Z,97868.00
2018-06-29T21:58:18.669Z,97862.00
2018-06-29T22:02:20.825Z,97866.00
2018-06-29T22:06:22.991Z,97867.00
2018-06-29T22:10:25.149Z,97866.00
2018-06-29T22:14:27.299Z,97865.00
2018-06-29T22:18:29.694Z,97864.00
2018-06-29T22:22:31.927Z,97867.00
2018-06-29T22:26:34.183Z,97871.00
2018-06-29T22:30:36.826Z,97862.00
2018-06-29T22:34:39.003Z,97863.00
2018-06-29T22:38:41.193Z,97861.00
2018-06-29T22:42:43.326Z,97865.00
2018-06-29T22:46:45.499Z,97866.00
2018-06-29T22:50:47.735Z,97866.00
2018-06-29T22:54:49.962Z,97864.00
2018-06-29T22:58:52.180Z,97857.00
2018-06-29T23:02:59.491Z,97865.00
2018-06-29T23:07:01.639Z,97858.00
2018-06-29T23:11:03.889Z,97862.00
2018-06-29T23:15:06.081Z,97860.00
2018-06-29T23:19:08.553Z,97861.00
2018-06-29T23:23:10.777Z,97861.00
2018-06-29T23:27:12.889Z,97861.00
2018-06-29T23:31:15.455Z,97853.00
2018-06-29T23:35:17.601Z,97849.00
2018-06-29T23:39:19.779Z,97851.00
2018-06-29T23:43:21.908Z,97858.00
2018-06-29T23:47:24.095Z,97846.00
2018-06-29T23:51:26.269Z,97844.00
2018-06-29T23:55:28.539Z,97848.00
2018-06-29T23:59:30.720Z,97852.00
